createdAt,value
2022-12-14T00:01:55.145Z,70.01
2022-12-14T00:04:27.229Z,69.78
2022-12-14T00:06:59.370Z,69.86
2022-12-14T00:09:31.461Z,69.64
2022-12-14T00:12:03.657Z,69.55
2022-12-14T00:14:35.899Z,69.62
2022-12-14T00:17:08.147Z,69.52
2022-12-14T00:19:40.289Z,69.54
2022-12-14T00:22:12.661Z,69.52
2022-12-14T00:24:44.805Z,69.56
2022-12-14T00:27:16.971Z,69.87
2022-12-14T00:29:49.070Z,69.49
2022-12-14T00:32:21.283Z,69.80
2022-12-14T00:34:53.478Z,69.51
2022-12-14T00:37:25.825Z,69.31
2022-12-14T00:39:58.020Z,69.36
2022-12-14T00:42:30.261Z,69.28
2022-12-14T00:45:03.456Z,69.45
2022-12-14T00:47:40.515Z,69.25
2022-12-14T00:50:13.398Z,69.36
2022-12-14T00:52:45.592Z,69.77
2022-12-14T00:55:18.025Z,69.75
2022-12-14T00:57:51.236Z,69.63
2022-12-14T01:00:23.512Z,69.61
2022-12-14T01:02:55.776Z,69.71
2022-12-14T01:05:28.110Z,69.60
2022-12-14T01:08:00.316Z,69.62
2022-12-14T01:10:32.688Z,69.70
2022-12-14T01:13:04.913Z,69.45
2022-12-14T01:15:38.503Z,69.69
2022-12-14T01:18:10.857Z,69.55
2022-12-14T01:20:42.974Z,69.42
2022-12-14T01:23:15.809Z,69.37
2022-12-14T01:25:48.964Z,69.46
2022-12-14T01:28:22.679Z,69.34
2022-12-14T01:30:54.817Z,69.55
2022-12-14T01:33:27.302Z,69.47
2022-12-14T01:36:04.381Z,69.37
2022-12-14T01:38:36.549Z,69.30
2022-12-14T01:41:10.945Z,69.22
2022-12-14T01:43:51.176Z,69.35
2022-12-14T01:46:30.970Z,69.09
2022-12-14T01:49:12.358Z,69.30
2022-12-14T01:51:50.132Z,69.24
2022-12-14T01:54:23.146Z,69.02
2022-12-14T01:56:56.570Z,68.60
2022-12-14T01:59:32.500Z,68.75
2022-12-14T02:02:08.052Z,68.85
2022-12-14T02:04:44.031Z,68.99
2022-12-14T02:07:18.526Z,68.83
2022-12-14T02:09:52.950Z,68.96
2022-12-14T02:12:32.925Z,69.14
2022-12-14T02:15:07.015Z,69.30
2022-12-14T02:17:39.411Z,69.31
2022-12-14T02:20:16.212Z,69.26
2022-12-14T02:23:20.997Z,69.13
2022-12-14T02:26:19.738Z,69.19
2022-12-14T02:29:28.207Z,69.42
2022-12-14T02:32:15.711Z,69.29
2022-12-14T02:34:58.043Z,69.23
2022-12-14T02:37:38.556Z,68.96
2022-12-14T02:40:27.212Z,69.07
2022-12-14T02:43:09.619Z,69.23
2022-12-14T02:45:46.652Z,68.73
2022-12-14T02:48:23.223Z,69.09
2022-12-14T02:51:01.332Z,68.96
2022-12-14T02:53:40.135Z,68.65
2022-12-14T02:56:16.727Z,68.68
2022-12-14T02:58:51.151Z,68.69
2022-12-14T03:01:27.603Z,68.54
2022-12-14T03:04:00.301Z,68.71
2022-12-14T03:06:33.501Z,68.72
2022-12-14T03:09:11.242Z,68.70
2022-12-14T03:11:50.090Z,68.42
2022-12-14T03:14:28.502Z,68.41
2022-12-14T03:17:06.073Z,68.45
2022-12-14T03:19:42.160Z,68.73
2022-12-14T03:22:20.265Z,68.74
2022-12-14T03:24:56.681Z,68.61
2022-12-14T03:27:34.714Z,68.71
2022-12-14T03:30:11.769Z,68.95
2022-12-14T03:32:48.941Z,68.98
2022-12-14T03:35:25.990Z,68.85
2022-12-14T03:38:03.765Z,68.85
2022-12-14T03:40:40.362Z,69.25
2022-12-14T03:43:19.623Z,69.02
2022-12-14T03:45:59.372Z,68.75
2022-12-14T03:48:38.091Z,68.95
2022-12-14T03:51:20.472Z,68.97
2022-12-14T03:54:03.443Z,68.60
2022-12-14T03:56:42.498Z,68.77
2022-12-14T03:59:21.272Z,68.75
2022-12-14T04:02:00.715Z,68.49
2022-12-14T04:04:39.483Z,68.46
2022-12-14T04:07:19.280Z,68.73
2022-12-14T04:09:55.621Z,68.47
2022-12-14T04:12:51.631Z,68.48
2022-12-14T04:15:44.977Z,68.51
2022-12-14T04:18:40.660Z,68.55
2022-12-14T04:21:16.618Z,68.42
2022-12-14T04:24:11.567Z,68.56
2022-12-14T04:26:49.623Z,68.47
2022-12-14T04:29:47.284Z,68.32
2022-12-14T04:32:23.761Z,68.43
2022-12-14T04:34:59.262Z,68.31
2022-12-14T04:37:33.035Z,68.17
2022-12-14T04:40:11.679Z,68.20
2022-12-14T04:42:52.119Z,67.86
2022-12-14T04:45:29.621Z,67.89
2022-12-14T04:48:09.818Z,68.19
2022-12-14T04:50:46.672Z,68.22
2022-12-14T04:53:22.781Z,68.14
2022-12-14T04:56:02.444Z,68.38
2022-12-14T04:58:36.642Z,68.44
2022-12-14T05:01:23.003Z,68.61
2022-12-14T05:04:10.911Z,68.66
2022-12-14T05:06:51.611Z,68.68
2022-12-14T05:09:30.782Z,68.42
2022-12-14T05:12:09.681Z,68.43
2022-12-14T05:14:47.460Z,68.66
2022-12-14T05:17:19.848Z,68.35
2022-12-14T05:19:54.362Z,68.28
2022-12-14T05:22:26.751Z,68.27
2022-12-14T05:24:59.177Z,68.30
2022-12-14T05:27:31.395Z,68.13
2022-12-14T05:30:03.691Z,68.21
2022-12-14T05:32:36.114Z,68.31
2022-12-14T05:35:11.604Z,68.17
2022-12-14T05:37:44.223Z,68.26
2022-12-14T05:40:18.713Z,68.07
2022-12-14T05:42:55.537Z,68.03
2022-12-14T05:45:28.043Z,68.33
2022-12-14T05:48:00.185Z,68.14
2022-12-14T05:50:32.585Z,68.28
2022-12-14T05:53:05.059Z,68.20
2022-12-14T05:55:37.610Z,68.12
2022-12-14T05:58:09.984Z,68.07
2022-12-14T06:00:42.284Z,67.99
2022-12-14T06:03:14.652Z,67.65
2022-12-14T06:05:47.563Z,67.52
2022-12-14T06:08:19.755Z,67.61
2022-12-14T06:10:52.030Z,67.73
2022-12-14T06:13:24.512Z,67.79
2022-12-14T06:15:56.992Z,67.81
2022-12-14T06:18:29.276Z,67.83
2022-12-14T06:21:02.232Z,67.64
2022-12-14T06:23:34.609Z,67.68
2022-12-14T06:26:07.238Z,67.98
2022-12-14T06:28:39.791Z,67.85
2022-12-14T06:31:20.305Z,67.69
2022-12-14T06:33:54.791Z,67.80
2022-12-14T06:36:28.864Z,67.45
2022-12-14T06:39:04.825Z,67.24
2022-12-14T06:41:36.990Z,67.21
2022-12-14T06:44:13.015Z,67.13
2022-12-14T06:46:45.441Z,67.22
2022-12-14T06:49:18.641Z,67.29
2022-12-14T06:51:51.096Z,67.20
2022-12-14T06:54:23.594Z,67.39
2022-12-14T06:56:55.759Z,67.29
2022-12-14T06:59:28.009Z,67.21
2022-12-14T07:02:00.428Z,67.40
2022-12-14T07:04:32.725Z,67.44
2022-12-14T07:07:05.009Z,67.48
2022-12-14T07:09:37.165Z,67.66
2022-12-14T07:12:09.737Z,67.72
2022-12-14T07:14:41.883Z,67.58
2022-12-14T07:17:14.028Z,67.53
2022-12-14T07:19:49.042Z,67.79
2022-12-14T07:22:21.669Z,67.57
2022-12-14T07:24:54.310Z,67.78
2022-12-14T07:27:26.463Z,67.67
2022-12-14T07:29:58.659Z,67.80
2022-12-14T07:32:31.040Z,67.92
2022-12-14T07:35:03.505Z,68.00
2022-12-14T07:37:36.006Z,68.12
2022-12-14T07:40:11.300Z,67.93
2022-12-14T07:42:43.926Z,67.97
2022-12-14T07:45:16.325Z,67.80
2022-12-14T07:47:48.524Z,67.93
2022-12-14T07:50:20.627Z,68.07
2022-12-14T07:52:53.041Z,68.15
2022-12-14T07:55:26.024Z,68.16
2022-12-14T07:57:58.473Z,68.12
2022-12-14T08:00:30.617Z,68.16
2022-12-14T08:03:02.820Z,68.24
2022-12-14T08:05:35.080Z,68.17
2022-12-14T08:08:07.605Z,68.22
2022-12-14T08:10:40.624Z,68.23
2022-12-14T08:13:13.172Z,68.41
2022-12-14T08:15:45.538Z,68.30
2022-12-14T08:18:18.102Z,68.75
2022-12-14T08:20:53.549Z,68.45
2022-12-14T08:23:26.266Z,68.56
2022-12-14T08:26:13.542Z,68.46
2022-12-14T08:28:58.002Z,68.63
2022-12-14T08:31:30.652Z,68.52
2022-12-14T08:34:03.361Z,68.75
2022-12-14T08:36:38.845Z,68.60
2022-12-14T08:39:13.611Z,68.59
2022-12-14T08:41:48.928Z,68.56
2022-12-14T08:44:21.125Z,68.59
2022-12-14T08:46:53.349Z,68.44
2022-12-14T08:49:31.954Z,68.87
2022-12-14T08:52:04.507Z,68.66
2022-12-14T08:54:36.818Z,68.64
2022-12-14T09:02:22.408Z,68.82
2022-12-14T09:04:55.143Z,68.61
2022-12-14T09:07:27.212Z,68.70
2022-12-14T09:09:59.632Z,68.59
2022-12-14T09:12:31.954Z,68.54
2022-12-14T09:15:04.485Z,68.60
2022-12-14T09:17:36.676Z,68.55
2022-12-14T09:20:10.479Z,68.52
2022-12-14T09:22:42.599Z,68.79
2022-12-14T09:25:14.625Z,68.84
2022-12-14T09:27:46.757Z,68.87
2022-12-14T09:30:24.751Z,68.85
2022-12-14T09:32:58.671Z,69.20
2022-12-14T09:35:30.709Z,68.98
2022-12-14T09:38:02.853Z,69.20
2022-12-14T09:40:36.353Z,69.01
2022-12-14T09:43:15.738Z,69.26
2022-12-14T09:45:55.642Z,69.44
2022-12-14T09:48:28.670Z,69.28
2022-12-14T09:51:01.287Z,68.82
2022-12-14T09:53:34.820Z,69.28
2022-12-14T09:56:14.271Z,69.22
2022-12-14T09:58:53.120Z,69.05
2022-12-14T10:02:29.705Z,69.38
2022-12-14T10:04:56.696Z,69.07
2022-12-14T10:07:36.877Z,68.82
2022-12-14T10:10:24.536Z,68.85
2022-12-14T10:13:07.710Z,68.86
2022-12-14T10:15:50.767Z,68.80
2022-12-14T10:18:58.463Z,68.90
2022-12-14T10:21:33.549Z,69.51
2022-12-14T10:24:09.447Z,69.61
2022-12-14T10:26:46.638Z,69.41
2022-12-14T10:29:27.896Z,69.39
2022-12-14T10:32:07.939Z,69.41
2022-12-14T10:34:43.695Z,69.66
2022-12-14T10:37:26.875Z,69.65
2022-12-14T10:40:22.083Z,69.58
2022-12-14T10:43:17.319Z,69.59
2022-12-14T10:45:55.785Z,69.56
2022-12-14T10:48:37.378Z,69.37
2022-12-14T10:51:13.289Z,69.26
2022-12-14T10:53:50.755Z,69.33
2022-12-14T10:56:27.488Z,69.38
2022-12-14T10:59:29.273Z,69.54
2022-12-14T11:02:11.218Z,69.06
2022-12-14T11:04:51.825Z,68.99
2022-12-14T11:07:25.681Z,68.85
2022-12-14T11:10:17.691Z,69.21
2022-12-14T11:13:03.119Z,69.41
2022-12-14T11:15:35.942Z,69.50
2022-12-14T11:18:28.440Z,69.49
2022-12-14T11:21:02.999Z,69.55
2022-12-14T11:23:39.885Z,69.55
2022-12-14T11:26:15.526Z,69.78
2022-12-14T11:28:52.968Z,69.73
2022-12-14T11:31:29.922Z,69.69
2022-12-14T11:34:03.839Z,69.57
2022-12-14T11:36:38.943Z,69.18
2022-12-14T11:39:21.404Z,69.53
2022-12-14T11:42:02.175Z,69.22
2022-12-14T11:44:37.287Z,69.17
2022-12-14T11:47:08.793Z,69.27
2022-12-14T11:49:46.793Z,69.13
2022-12-14T11:52:21.477Z,69.20
2022-12-14T11:55:14.172Z,69.47
2022-12-14T11:57:52.895Z,69.29
2022-12-14T12:00:28.799Z,69.31
2022-12-14T12:03:07.289Z,69.41
2022-12-14T12:05:44.781Z,69.32
2022-12-14T12:08:26.397Z,69.28
2022-12-14T12:11:02.640Z,69.10
2022-12-14T12:13:39.848Z,68.91
2022-12-14T12:16:18.358Z,68.69
2022-12-14T12:18:55.865Z,68.93
2022-12-14T12:21:31.763Z,68.98
2022-12-14T12:24:09.007Z,69.03
2022-12-14T12:26:50.074Z,69.11
2022-12-14T12:29:31.489Z,69.53
2022-12-14T12:32:09.545Z,69.43
2022-12-14T12:34:47.242Z,69.57
2022-12-14T12:37:29.805Z,69.35
2022-12-14T12:40:11.964Z,69.58
2022-12-14T12:42:48.427Z,69.42
2022-12-14T12:45:26.199Z,69.36
2022-12-14T12:48:03.478Z,69.34
2022-12-14T12:50:40.828Z,69.27
2022-12-14T12:53:17.988Z,69.28
2022-12-14T12:55:54.149Z,69.13
2022-12-14T12:58:30.433Z,69.25
2022-12-14T13:01:06.505Z,69.23
2022-12-14T13:03:45.288Z,69.31
2022-12-14T13:06:23.176Z,69.10
2022-12-14T13:08:59.080Z,69.27
2022-12-14T13:11:37.239Z,68.98
2022-12-14T13:14:19.237Z,68.94
2022-12-14T13:16:54.042Z,68.89
2022-12-14T13:19:54.160Z,68.80
2022-12-14T13:22:29.818Z,68.91
2022-12-14T13:25:04.369Z,68.67
2022-12-14T13:27:49.846Z,69.08
2022-12-14T13:30:28.795Z,69.06
2022-12-14T13:33:19.296Z,69.33
2022-12-14T13:36:14.440Z,69.26
2022-12-14T13:39:11.839Z,69.19
2022-12-14T13:41:49.816Z,69.01
2022-12-14T13:44:46.076Z,69.26
2022-12-14T13:47:21.956Z,68.98
2022-12-14T13:50:34.160Z,69.26
2022-12-14T13:52:51.021Z,69.25
2022-12-14T13:55:32.100Z,69.27
2022-12-14T13:58:21.450Z,69.45
2022-12-14T14:01:07.440Z,69.14
2022-12-14T14:03:57.748Z,69.18
2022-12-14T14:06:41.675Z,69.09
2022-12-14T14:09:59.594Z,69.20
2022-12-14T14:12:38.364Z,68.96
2022-12-14T14:15:31.839Z,68.92
2022-12-14T14:18:18.314Z,68.87
2022-12-14T14:20:58.549Z,68.82
2022-12-14T14:23:34.323Z,68.84
2022-12-14T14:26:25.323Z,68.90
2022-12-14T14:29:26.995Z,68.91
2022-12-14T14:32:01.796Z,68.93
2022-12-14T14:34:49.816Z,68.96
2022-12-14T14:37:33.704Z,68.68
2022-12-14T14:40:44.308Z,68.38
2022-12-14T14:43:29.983Z,68.30
2022-12-14T14:46:05.096Z,68.53
2022-12-14T14:48:41.769Z,68.46
2022-12-14T14:51:25.310Z,68.50
2022-12-14T14:55:10.710Z,68.83
2022-12-14T14:57:56.323Z,68.80
2022-12-14T15:00:29.183Z,68.99
2022-12-14T15:03:01.539Z,68.84
2022-12-14T15:05:44.500Z,68.84
2022-12-14T15:08:21.944Z,68.88
2022-12-14T15:10:56.062Z,69.02
2022-12-14T15:13:33.078Z,69.16
2022-12-14T15:16:05.924Z,69.06
2022-12-14T15:18:38.116Z,68.71
2022-12-14T15:21:13.663Z,68.81
2022-12-14T15:23:49.488Z,68.90
2022-12-14T15:26:26.561Z,68.71
2022-12-14T15:29:00.665Z,68.78
2022-12-14T15:31:35.073Z,68.60
2022-12-14T15:34:08.022Z,68.70
2022-12-14T15:36:43.647Z,68.79
2022-12-14T15:39:33.780Z,68.61
2022-12-14T15:42:10.817Z,68.80
2022-12-14T15:44:51.580Z,68.50
2022-12-14T15:47:30.483Z,68.47
2022-12-14T15:50:17.121Z,68.68
2022-12-14T15:52:50.958Z,68.52
2022-12-14T15:55:36.461Z,68.43
2022-12-14T15:58:12.933Z,68.51
2022-12-14T16:00:50.951Z,68.22
2022-12-14T16:03:31.780Z,68.43
2022-12-14T16:06:04.667Z,68.66
2022-12-14T16:08:39.887Z,68.66
2022-12-14T16:11:21.933Z,68.63
2022-12-14T16:13:55.050Z,68.73
2022-12-14T16:16:27.916Z,68.86
2022-12-14T16:19:25.188Z,68.87
2022-12-14T16:22:20.267Z,68.82
2022-12-14T16:25:17.988Z,68.70
2022-12-14T16:27:51.125Z,68.71
2022-12-14T16:30:28.091Z,68.71
2022-12-14T16:33:19.630Z,68.68
2022-12-14T16:36:08.927Z,68.55
2022-12-14T16:38:56.123Z,68.69
2022-12-14T16:41:39.504Z,68.63
2022-12-14T16:44:21.140Z,68.50
2022-12-14T16:47:25.548Z,68.65
2022-12-14T16:50:00.440Z,68.54
2022-12-14T16:52:34.259Z,68.52
2022-12-14T16:55:13.316Z,68.44
2022-12-14T16:57:55.879Z,68.44
2022-12-14T17:00:31.677Z,68.53
2022-12-14T17:03:06.079Z,68.66
2022-12-14T17:05:41.133Z,68.66
2022-12-14T17:08:13.350Z,68.40
2022-12-14T17:10:45.463Z,68.32
2022-12-14T17:13:17.559Z,68.16
2022-12-14T17:16:00.513Z,68.34
2022-12-14T17:18:35.312Z,68.05
2022-12-14T17:21:08.834Z,68.28
2022-12-14T17:23:44.075Z,68.18
2022-12-14T17:26:23.206Z,68.07
2022-12-14T17:28:56.423Z,68.19
2022-12-14T17:31:30.162Z,68.49
2022-12-14T17:34:02.988Z,68.58
2022-12-14T17:36:35.799Z,68.47
2022-12-14T17:39:08.221Z,68.46
2022-12-14T17:41:43.410Z,68.66
2022-12-14T17:44:18.342Z,68.46
2022-12-14T17:46:50.070Z,68.47
2022-12-14T17:49:34.330Z,68.41
2022-12-14T17:52:16.985Z,68.50
2022-12-14T17:54:49.272Z,68.43
2022-12-14T17:57:24.095Z,68.43
2022-12-14T18:00:10.341Z,68.36
2022-12-14T18:02:45.649Z,68.39
2022-12-14T18:05:22.323Z,68.57
2022-12-14T18:07:55.296Z,68.36
2022-12-14T18:10:28.999Z,68.23
2022-12-14T18:13:04.517Z,68.39
2022-12-14T18:15:39.540Z,68.33
2022-12-14T18:18:11.984Z,68.45
2022-12-14T18:20:46.407Z,68.34
2022-12-14T18:23:23.565Z,68.33
2022-12-14T18:25:58.197Z,68.38
2022-12-14T18:28:30.825Z,67.98
2022-12-14T18:31:09.035Z,67.95
2022-12-14T18:33:41.247Z,68.20
2022-12-14T18:36:15.077Z,68.14
2022-12-14T18:38:49.219Z,68.01
2022-12-14T18:41:24.476Z,68.09
2022-12-14T18:43:56.728Z,68.39
2022-12-14T18:46:29.351Z,68.64
2022-12-14T18:49:01.680Z,68.48
2022-12-14T18:51:34.577Z,68.49
2022-12-14T18:54:07.064Z,68.48
2022-12-14T18:56:41.909Z,68.63
2022-12-14T18:59:14.271Z,68.54
2022-12-14T19:01:46.506Z,68.41
2022-12-14T19:04:19.230Z,68.40
2022-12-14T19:06:51.978Z,68.39
2022-12-14T19:09:24.169Z,68.64
2022-12-14T19:11:56.775Z,68.44
2022-12-14T19:14:29.440Z,68.45
2022-12-14T19:17:02.084Z,68.36
2022-12-14T19:19:39.462Z,68.39
2022-12-14T19:22:16.679Z,68.47
2022-12-14T19:24:52.381Z,68.44
2022-12-14T19:27:58.935Z,68.54
2022-12-14T19:30:22.944Z,68.23
2022-12-14T19:32:57.335Z,68.20
2022-12-14T19:35:29.654Z,68.28
2022-12-14T19:38:01.821Z,68.28
2022-12-14T19:40:33.940Z,68.27
2022-12-14T19:43:06.337Z,67.95
2022-12-14T19:45:39.581Z,67.90
2022-12-14T19:48:13.461Z,67.97
2022-12-14T19:50:49.607Z,68.12
2022-12-14T19:53:28.085Z,68.24
2022-12-14T19:56:00.803Z,68.23
2022-12-14T19:58:33.556Z,68.31
2022-12-14T20:01:10.584Z,68.64
2022-12-14T20:03:43.524Z,68.47
2022-12-14T20:06:15.718Z,68.40
2022-12-14T20:08:49.292Z,68.49
2022-12-14T20:11:22.240Z,68.49
2022-12-14T20:13:59.956Z,68.30
2022-12-14T20:16:34.640Z,68.32
2022-12-14T20:19:07.721Z,68.39
2022-12-14T20:21:40.248Z,68.24
2022-12-14T20:24:14.577Z,68.37
2022-12-14T20:26:46.735Z,68.26
2022-12-14T20:29:21.751Z,68.03
2022-12-14T20:31:55.248Z,68.28
2022-12-14T20:34:29.255Z,68.31
2022-12-14T20:37:01.601Z,68.33
2022-12-14T20:39:33.847Z,68.26
2022-12-14T20:42:06.237Z,68.21
2022-12-14T20:44:38.465Z,68.12
2022-12-14T20:47:12.007Z,68.14
2022-12-14T20:49:44.235Z,67.98
2022-12-14T20:52:16.300Z,68.09
2022-12-14T20:54:49.211Z,68.22
2022-12-14T20:57:21.385Z,68.02
2022-12-14T20:59:53.427Z,68.09
2022-12-14T21:02:25.950Z,68.01
2022-12-14T21:04:58.373Z,67.94
2022-12-14T21:07:31.717Z,67.98
2022-12-14T21:10:03.784Z,67.93
2022-12-14T21:12:37.062Z,67.92
2022-12-14T21:15:10.268Z,67.79
2022-12-14T21:17:42.462Z,67.73
2022-12-14T21:20:16.116Z,67.75
2022-12-14T21:22:48.335Z,67.72
2022-12-14T21:25:20.684Z,67.82
2022-12-14T21:27:53.445Z,67.84
2022-12-14T21:30:25.607Z,68.17
2022-12-14T21:32:58.727Z,68.03
2022-12-14T21:35:30.892Z,68.10
2022-12-14T21:38:03.034Z,68.46
2022-12-14T21:40:52.945Z,68.15
2022-12-14T21:43:25.443Z,67.86
2022-12-14T21:45:57.616Z,68.19
2022-12-14T21:48:29.841Z,68.15
2022-12-14T21:51:06.403Z,68.03
2022-12-14T21:53:39.445Z,68.08
2022-12-14T21:56:29.760Z,68.00
2022-12-14T21:59:01.884Z,68.09
2022-12-14T22:01:34.090Z,68.15
2022-12-14T22:04:07.031Z,68.01
2022-12-14T22:06:39.330Z,67.91
2022-12-14T22:09:11.677Z,67.96
2022-12-14T22:11:43.870Z,68.14
2022-12-14T22:14:16.944Z,67.98
2022-12-14T22:16:49.883Z,68.05
2022-12-14T22:19:24.451Z,68.03
2022-12-14T22:21:57.100Z,67.83
2022-12-14T22:24:30.328Z,67.85
2022-12-14T22:27:02.491Z,67.87
2022-12-14T22:29:35.267Z,67.94
2022-12-14T22:32:08.478Z,67.96
2022-12-14T22:34:40.838Z,67.93
2022-12-14T22:37:16.888Z,67.87
2022-12-14T22:39:49.173Z,67.74
2022-12-14T22:42:21.306Z,67.76
2022-12-14T22:44:54.632Z,67.59
2022-12-14T22:47:26.847Z,67.52
2022-12-14T22:49:59.041Z,67.86
2022-12-14T22:52:32.004Z,67.70
2022-12-14T22:55:04.273Z,67.83
2022-12-14T22:57:41.782Z,67.50
2022-12-14T23:00:17.048Z,67.79
2022-12-14T23:02:50.567Z,67.68
2022-12-14T23:05:23.134Z,67.60
2022-12-14T23:07:55.483Z,67.58
2022-12-14T23:10:45.443Z,67.66
2022-12-14T23:13:40.088Z,67.80
2022-12-14T23:16:30.161Z,67.60
2022-12-14T23:19:20.317Z,67.46
2022-12-14T23:22:10.430Z,67.75
2022-12-14T23:25:00.544Z,67.64
2022-12-14T23:27:50.351Z,67.78
2022-12-14T23:30:40.097Z,67.49
2022-12-14T23:33:30.192Z,67.65
2022-12-14T23:36:23.126Z,67.54
2022-12-14T23:39:13.341Z,67.70
2022-12-14T23:42:03.306Z,67.50
2022-12-14T23:44:53.161Z,67.49
2022-12-14T23:47:42.845Z,67.46
2022-12-14T23:50:32.644Z,67.55
2022-12-14T23:53:26.461Z,67.59
2022-12-14T23:56:16.280Z,67.49
2022-12-14T23:59:10.273Z,67.67
